sensor_id;sensor_type;location;lat;lon;timestamp;pressure;altitude;pressure_sealevel;temperature;humidity
8318;BME280;4196;48.926;8.964;2023-11-21T00:00:28;98469.25;;;6.67;100.00
8318;BME280;4196;48.926;8.964;2023-11-21T00:03:14;98468.38;;;6.63;100.00
8318;BME280;4196;48.926;8.964;2023-11-21T00:06:05;98460.66;;;6.68;100.00
8318;BME280;4196;48.926;8.964;2023-11-21T00:08:55;98471.00;;;6.74;100.00
8318;BME280;4196;48.926;8.964;2023-11-21T00:11:42;98476.13;;;6.80;100.00
8318;BME280;4196;48.926;8.964;2023-11-21T00:14:29;98463.28;;;6.85;100.00
8318;BME280;4196;48.926;8.964;2023-11-21T00:17:16;98460.72;;;6.86;100.00
8318;BME280;4196;48.926;8.964;2023-11-21T00:20:04;98464.16;;;6.90;100.00
8318;BME280;4196;48.926;8.964;2023-11-21T00:22:52;98460.72;;;6.88;100.00
8318;BME280;4196;48.926;8.964;2023-11-21T00:25:39;98455.56;;;6.83;100.00
8318;BME280;4196;48.926;8.964;2023-11-21T00:28:26;98458.16;;;6.82;100.00
8318;BME280;4196;48.926;8.964;2023-11-21T00:31:12;98454.72;;;6.87;100.00
8318;BME280;4196;48.926;8.964;2023-11-21T00:34:00;98458.19;;;7.00;100.00
8318;BME280;4196;48.926;8.964;2023-11-21T00:36:46;98457.28;;;6.92;100.00
8318;BME280;4196;48.926;8.964;2023-11-21T00:39:33;98456.44;;;6.85;100.00
8318;BME280;4196;48.926;8.964;2023-11-21T00:42:21;98457.31;;;6.90;100.00
8318;BME280;4196;48.926;8.964;2023-11-21T00:45:08;98457.28;;;6.86;100.00
8318;BME280;4196;48.926;8.964;2023-11-21T00:47:55;98455.59;;;6.97;100.00
8318;BME280;4196;48.926;8.964;2023-11-21T00:50:41;98459.06;;;7.13;100.00
8318;BME280;4196;48.926;8.964;2023-11-21T00:53:28;98466.81;;;7.26;100.00
8318;BME280;4196;48.926;8.964;2023-11-21T00:56:15;98460.78;;;7.17;100.00
8318;BME280;4196;48.926;8.964;2023-11-21T00:59:02;98459.06;;;7.28;100.00
8318;BME280;4196;48.926;8.964;2023-11-21T01:01:51;98459.06;;;7.25;100.00
8318;BME280;4196;48.926;8.964;2023-11-21T01:04:38;98459.06;;;7.31;100.00
8318;BME280;4196;48.926;8.964;2023-11-21T01:07:24;98454.78;;;7.29;100.00
8318;BME280;4196;48.926;8.964;2023-11-21T01:10:11;98455.63;;;7.32;100.00
8318;BME280;4196;48.926;8.964;2023-11-21T01:12:58;98459.09;;;7.37;100.00
8318;BME280;4196;48.926;8.964;2023-11-21T01:15:44;98460.81;;;7.47;100.00
8318;BME280;4196;48.926;8.964;2023-11-21T01:18:31;98453.91;;;7.68;100.00
8318;BME280;4196;48.926;8.964;2023-11-21T01:21:17;98462.50;;;7.82;100.00
8318;BME280;4196;48.926;8.964;2023-11-21T01:24:04;98454.75;;;7.79;100.00
8318;BME280;4196;48.926;8.964;2023-11-21T01:26:53;98465.09;;;7.68;100.00
8318;BME280;4196;48.926;8.964;2023-11-21T01:29:40;98455.66;;;7.63;100.00
8318;BME280;4196;48.926;8.964;2023-11-21T01:32:26;98466.78;;;7.65;100.00
8318;BME280;4196;48.926;8.964;2023-11-21T01:35:12;98465.94;;;7.57;100.00
8318;BME280;4196;48.926;8.964;2023-11-21T01:37:59;98447.06;;;7.45;100.00
8318;BME280;4196;48.926;8.964;2023-11-21T01:40:45;98451.38;;;7.45;100.00
8318;BME280;4196;48.926;8.964;2023-11-21T01:43:32;98456.50;;;7.49;100.00
8318;BME280;4196;48.926;8.964;2023-11-21T01:46:19;98453.06;;;7.49;100.00
8318;BME280;4196;48.926;8.964;2023-11-21T01:49:07;98453.06;;;7.72;100.00
8318;BME280;4196;48.926;8.964;2023-11-21T01:51:55;98455.63;;;7.78;100.00
8318;BME280;4196;48.926;8.964;2023-11-21T01:54:43;98451.31;;;7.83;100.00
8318;BME280;4196;48.926;8.964;2023-11-21T01:57:30;98459.06;;;7.83;100.00
8318;BME280;4196;48.926;8.964;2023-11-21T02:00:16;98460.78;;;7.83;100.00
8318;BME280;4196;48.926;8.964;2023-11-21T02:03:02;98453.91;;;7.80;100.00
8318;BME280;4196;48.926;8.964;2023-11-21T02:05:50;98458.22;;;7.75;100.00
8318;BME280;4196;48.926;8.964;2023-11-21T02:08:37;98453.94;;;7.77;100.00
8318;BME280;4196;48.926;8.964;2023-11-21T02:11:24;98445.34;;;7.54;100.00
8318;BME280;4196;48.926;8.964;2023-11-21T02:14:10;98450.50;;;7.52;100.00
8318;BME280;4196;48.926;8.964;2023-11-21T02:16:58;98437.63;;;7.34;100.00
8318;BME280;4196;48.926;8.964;2023-11-21T02:19:45;98459.09;;;7.40;100.00
8318;BME280;4196;48.926;8.964;2023-11-21T02:22:36;98460.78;;;7.35;100.00
8318;BME280;4196;48.926;8.964;2023-11-21T02:25:32;98458.22;;;7.29;100.00
8318;BME280;4196;48.926;8.964;2023-11-21T02:28:20;98460.81;;;7.29;100.00
8318;BME280;4196;48.926;8.964;2023-11-21T02:31:12;98453.06;;;7.24;100.00
8318;BME280;4196;48.926;8.964;2023-11-21T02:33:58;98449.63;;;7.35;100.00
8318;BME280;4196;48.926;8.964;2023-11-21T02:36:47;98459.09;;;7.30;100.00
8318;BME280;4196;48.926;8.964;2023-11-21T02:39:35;98451.34;;;7.26;100.00
8318;BME280;4196;48.926;8.964;2023-11-21T02:42:22;98449.59;;;7.18;100.00
8318;BME280;4196;48.926;8.964;2023-11-21T02:45:10;98453.91;;;7.25;100.00
8318;BME280;4196;48.926;8.964;2023-11-21T02:47:59;98453.94;;;7.19;100.00
8318;BME280;4196;48.926;8.964;2023-11-21T02:50:45;98455.66;;;7.26;100.00
8318;BME280;4196;48.926;8.964;2023-11-21T02:53:32;98447.91;;;7.24;100.00
8318;BME280;4196;48.926;8.964;2023-11-21T02:56:19;98433.31;;;7.19;100.00
8318;BME280;4196;48.926;8.964;2023-11-21T02:59:06;98451.34;;;7.28;100.00
8318;BME280;4196;48.926;8.964;2023-11-21T03:01:53;98453.91;;;7.62;100.00
8318;BME280;4196;48.926;8.964;2023-11-21T03:04:39;98444.47;;;7.61;100.00
8318;BME280;4196;48.926;8.964;2023-11-21T03:07:26;98439.31;;;7.50;100.00
8318;BME280;4196;48.926;8.964;2023-11-21T03:10:13;98453.94;;;7.49;100.00
8318;BME280;4196;48.926;8.964;2023-11-21T03:12:59;98449.63;;;7.47;100.00
8318;BME280;4196;48.926;8.964;2023-11-21T03:15:46;98445.34;;;7.38;100.00
8318;BME280;4196;48.926;8.964;2023-11-21T03:18:33;98447.06;;;7.27;100.00
8318;BME280;4196;48.926;8.964;2023-11-21T03:21:21;98459.06;;;7.19;100.00
8318;BME280;4196;48.926;8.964;2023-11-21T03:24:07;98453.91;;;7.13;100.00
8318;BME280;4196;48.926;8.964;2023-11-21T03:26:53;98452.19;;;7.12;100.00
8318;BME280;4196;48.926;8.964;2023-11-21T03:29:40;98459.03;;;7.07;100.00
8318;BME280;4196;48.926;8.964;2023-11-21T03:32:26;98462.50;;;7.15;100.00
8318;BME280;4196;48.926;8.964;2023-11-21T03:35:13;98456.47;;;7.13;100.00
8318;BME280;4196;48.926;8.964;2023-11-21T03:38:00;98460.78;;;7.20;100.00
8318;BME280;4196;48.926;8.964;2023-11-21T03:40:48;98464.22;;;7.28;100.00
8318;BME280;4196;48.926;8.964;2023-11-21T03:43:35;98459.06;;;7.19;100.00
8318;BME280;4196;48.926;8.964;2023-11-21T03:46:21;98467.66;;;7.12;100.00
8318;BME280;4196;48.926;8.964;2023-11-21T03:49:08;98469.38;;;7.16;100.00
8318;BME280;4196;48.926;8.964;2023-11-21T03:51:56;98453.91;;;7.04;100.00
8318;BME280;4196;48.926;8.964;2023-11-21T03:54:42;98467.66;;;7.12;100.00
8318;BME280;4196;48.926;8.964;2023-11-21T03:57:30;98471.94;;;7.14;100.00
8318;BME280;4196;48.926;8.964;2023-11-21T04:00:17;98469.38;;;7.11;100.00
8318;BME280;4196;48.926;8.964;2023-11-21T04:03:03;98450.47;;;7.05;100.00
8318;BME280;4196;48.926;8.964;2023-11-21T04:05:51;98469.38;;;7.30;100.00
8318;BME280;4196;48.926;8.964;2023-11-21T04:08:37;98456.47;;;7.20;100.00
8318;BME280;4196;48.926;8.964;2023-11-21T04:11:24;98462.50;;;7.21;100.00
8318;BME280;4196;48.926;8.964;2023-11-21T04:14:10;98476.25;;;7.26;100.00
8318;BME280;4196;48.926;8.964;2023-11-21T04:16:57;98472.78;;;7.24;100.00
8318;BME280;4196;48.926;8.964;2023-11-21T04:19:43;98479.66;;;7.28;100.00
8318;BME280;4196;48.926;8.964;2023-11-21T04:22:30;98480.53;;;7.35;100.00
8318;BME280;4196;48.926;8.964;2023-11-21T04:25:17;98477.97;;;7.30;100.00
8318;BME280;4196;48.926;8.964;2023-11-21T04:28:04;98483.09;;;7.39;100.00
8318;BME280;4196;48.926;8.964;2023-11-21T04:30:50;98480.53;;;7.35;100.00
8318;BME280;4196;48.926;8.964;2023-11-21T04:33:37;98479.66;;;7.25;100.00
8318;BME280;4196;48.926;8.964;2023-11-21T04:36:23;98478.81;;;7.26;100.00
8318;BME280;4196;48.926;8.964;2023-11-21T04:39:10;98479.69;;;7.31;100.00
8318;BME280;4196;48.926;8.964;2023-11-21T04:41:57;98472.78;;;7.24;100.00
8318;BME280;4196;48.926;8.964;2023-11-21T04:44:44;98483.09;;;7.27;100.00
8318;BME280;4196;48.926;8.964;2023-11-21T04:47:30;98481.38;;;7.17;100.00
8318;BME280;4196;48.926;8.964;2023-11-21T04:50:17;98480.53;;;7.24;100.00
8318;BME280;4196;48.926;8.964;2023-11-21T04:53:03;98483.94;;;7.15;100.00
8318;BME280;4196;48.926;8.964;2023-11-21T04:55:49;98481.34;;;7.14;100.00
8318;BME280;4196;48.926;8.964;2023-11-21T04:58:36;98482.19;;;7.07;100.00
8318;BME280;4196;48.926;8.964;2023-11-21T05:01:23;98478.78;;;7.08;100.00
8318;BME280;4196;48.926;8.964;2023-11-21T05:04:09;98475.31;;;6.99;100.00
8318;BME280;4196;48.926;8.964;2023-11-21T05:06:56;98483.91;;;6.95;100.00
8318;BME280;4196;48.926;8.964;2023-11-21T05:09:43;98486.47;;;6.92;100.00
8318;BME280;4196;48.926;8.964;2023-11-21T05:12:32;98477.91;;;6.93;100.00
8318;BME280;4196;48.926;8.964;2023-11-21T05:15:25;98489.88;;;6.91;100.00
8318;BME280;4196;48.926;8.964;2023-11-21T05:18:11;98481.28;;;6.83;100.00
8318;BME280;4196;48.926;8.964;2023-11-21T05:21:00;98482.16;;;6.79;100.00
8318;BME280;4196;48.926;8.964;2023-11-21T05:23:47;98495.91;;;6.95;100.00
8318;BME280;4196;48.926;8.964;2023-11-21T05:26:33;98499.31;;;6.86;100.00
8318;BME280;4196;48.926;8.964;2023-11-21T05:29:20;98505.34;;;6.85;100.00
8318;BME280;4196;48.926;8.964;2023-11-21T05:32:06;98504.47;;;6.89;100.00
8318;BME280;4196;48.926;8.964;2023-11-21T05:34:53;98495.09;;;7.04;100.00
8318;BME280;4196;48.926;8.964;2023-11-21T05:37:39;98517.38;;;6.98;100.00
8318;BME280;4196;48.926;8.964;2023-11-21T05:40:26;98496.72;;;6.80;100.00
8318;BME280;4196;48.926;8.964;2023-11-21T05:43:15;98524.19;;;6.87;100.00
8318;BME280;4196;48.926;8.964;2023-11-21T05:46:02;98518.19;;;6.84;100.00
8318;BME280;4196;48.926;8.964;2023-11-21T05:48:48;98524.19;;;6.84;100.00
8318;BME280;4196;48.926;8.964;2023-11-21T05:51:35;98532.75;;;6.83;100.00
8318;BME280;4196;48.926;8.964;2023-11-21T05:54:21;98531.03;;;6.76;100.00
8318;BME280;4196;48.926;8.964;2023-11-21T05:57:08;98537.00;;;6.76;100.00
8318;BME280;4196;48.926;8.964;2023-11-21T05:59:55;98534.47;;;6.78;100.00
8318;BME280;4196;48.926;8.964;2023-11-21T06:02:41;98538.72;;;6.73;100.00
8318;BME280;4196;48.926;8.964;2023-11-21T06:05:28;98537.88;;;6.71;100.00
8318;BME280;4196;48.926;8.964;2023-11-21T06:08:14;98549.88;;;6.75;100.00
8318;BME280;4196;48.926;8.964;2023-11-21T06:11:03;98549.84;;;6.69;100.00
8318;BME280;4196;48.926;8.964;2023-11-21T06:13:50;98555.88;;;6.71;100.00
8318;BME280;4196;48.926;8.964;2023-11-21T06:16:36;98554.13;;;6.64;100.00
8318;BME280;4196;48.926;8.964;2023-11-21T06:19:23;98557.50;;;6.58;100.00
8318;BME280;4196;48.926;8.964;2023-11-21T06:22:09;98555.81;;;6.56;100.00
8318;BME280;4196;48.926;8.964;2023-11-21T06:24:56;98570.34;;;6.53;100.00
8318;BME280;4196;48.926;8.964;2023-11-21T06:27:46;98560.03;;;6.47;100.00
8318;BME280;4196;48.926;8.964;2023-11-21T06:30:36;98561.72;;;6.42;100.00
8318;BME280;4196;48.926;8.964;2023-11-21T06:33:23;98539.34;;;6.26;100.00
8318;BME280;4196;48.926;8.964;2023-11-21T06:36:09;98555.59;;;6.25;100.00
8318;BME280;4196;48.926;8.964;2023-11-21T06:38:57;98565.03;;;6.23;100.00
8318;BME280;4196;48.926;8.964;2023-11-21T06:41:44;98564.06;;;6.10;100.00
8318;BME280;4196;48.926;8.964;2023-11-21T06:44:30;98576.91;;;6.05;100.00
8318;BME280;4196;48.926;8.964;2023-11-21T06:47:17;98576.03;;;6.05;100.00
8318;BME280;4196;48.926;8.964;2023-11-21T06:50:06;98591.47;;;6.07;100.00
8318;BME280;4196;48.926;8.964;2023-11-21T06:52:53;98589.78;;;6.10;100.00
8318;BME280;4196;48.926;8.964;2023-11-21T06:55:40;98583.84;;;6.22;100.00
8318;BME280;4196;48.926;8.964;2023-11-21T06:58:27;98601.94;;;6.31;100.00
8318;BME280;4196;48.926;8.964;2023-11-21T07:01:13;98601.06;;;6.32;100.00
8318;BME280;4196;48.926;8.964;2023-11-21T07:04:00;98609.75;;;6.46;100.00
8318;BME280;4196;48.926;8.964;2023-11-21T07:06:47;98613.22;;;6.48;100.00
8318;BME280;4196;48.926;8.964;2023-11-21T07:09:33;98616.69;;;6.57;100.00
8318;BME280;4196;48.926;8.964;2023-11-21T07:12:19;98601.19;;;6.49;100.00
8318;BME280;4196;48.926;8.964;2023-11-21T07:15:08;98616.75;;;6.72;100.00
8318;BME280;4196;48.926;8.964;2023-11-21T07:17:56;98620.22;;;6.74;100.00
8318;BME280;4196;48.926;8.964;2023-11-21T07:20:43;98617.56;;;6.65;100.00
8318;BME280;4196;48.926;8.964;2023-11-21T07:23:29;98630.50;;;6.71;100.00
8318;BME280;4196;48.926;8.964;2023-11-21T07:26:16;98641.66;;;6.81;100.00
8318;BME280;4196;48.926;8.964;2023-11-21T07:29:04;98639.06;;;6.73;100.00
8318;BME280;4196;48.926;8.964;2023-11-21T07:31:50;98639.97;;;6.83;100.00
8318;BME280;4196;48.926;8.964;2023-11-21T07:34:37;98650.25;;;6.81;100.00
8318;BME280;4196;48.926;8.964;2023-11-21T07:37:24;98647.69;;;6.84;100.00
8318;BME280;4196;48.926;8.964;2023-11-21T07:40:11;98647.75;;;6.90;100.00
8318;BME280;4196;48.926;8.964;2023-11-21T07:42:58;98652.88;;;6.90;100.00
8318;BME280;4196;48.926;8.964;2023-11-21T07:45:47;98651.19;;;6.92;100.00
8318;BME280;4196;48.926;8.964;2023-11-21T07:48:34;98659.75;;;6.91;100.00
8318;BME280;4196;48.926;8.964;2023-11-21T07:51:21;98617.59;;;6.63;100.00
8318;BME280;4196;48.926;8.964;2023-11-21T07:54:08;98664.97;;;7.04;100.00
8318;BME280;4196;48.926;8.964;2023-11-21T07:56:56;98668.41;;;7.10;100.00
8318;BME280;4196;48.926;8.964;2023-11-21T07:59:42;98676.22;;;7.19;100.00
8318;BME280;4196;48.926;8.964;2023-11-21T08:02:29;98671.88;;;7.09;100.00
8318;BME280;4196;48.926;8.964;2023-11-21T08:05:15;98674.44;;;7.14;100.00
8318;BME280;4196;48.926;8.964;2023-11-21T08:08:13;98658.13;;;7.04;100.00
8318;BME280;4196;48.926;8.964;2023-11-21T08:11:00;98677.09;;;7.26;100.00
8318;BME280;4196;48.926;8.964;2023-11-21T08:13:47;98675.34;;;7.19;100.00
8318;BME280;4196;48.926;8.964;2023-11-21T08:16:34;98678.78;;;7.19;100.00
8318;BME280;4196;48.926;8.964;2023-11-21T08:19:21;98677.91;;;7.20;100.00
8318;BME280;4196;48.926;8.964;2023-11-21T08:22:08;98676.19;;;7.16;100.00
8318;BME280;4196;48.926;8.964;2023-11-21T08:24:55;98677.03;;;7.17;100.00
8318;BME280;4196;48.926;8.964;2023-11-21T08:27:43;98677.94;;;7.22;100.00
8318;BME280;4196;48.926;8.964;2023-11-21T08:30:30;98661.63;;;7.20;100.00
8318;BME280;4196;48.926;8.964;2023-11-21T08:33:19;98677.97;;;7.30;100.00
8318;BME280;4196;48.926;8.964;2023-11-21T08:36:09;98684.00;;;7.33;100.00
8318;BME280;4196;48.926;8.964;2023-11-21T08:38:57;98674.63;;;7.47;100.00
8318;BME280;4196;48.926;8.964;2023-11-21T08:41:44;98689.22;;;7.53;100.00
8318;BME280;4196;48.926;8.964;2023-11-21T08:44:30;98689.22;;;7.48;100.00
8318;BME280;4196;48.926;8.964;2023-11-21T08:47:18;98684.03;;;7.42;100.00
8318;BME280;4196;48.926;8.964;2023-11-21T08:50:06;98691.78;;;7.48;100.00
8318;BME280;4196;48.926;8.964;2023-11-21T08:52:54;98685.72;;;7.34;100.00
8318;BME280;4196;48.926;8.964;2023-11-21T08:55:40;98700.34;;;7.43;100.00
8318;BME280;4196;48.926;8.964;2023-11-21T08:58:27;98695.19;;;7.43;100.00
8318;BME280;4196;48.926;8.964;2023-11-21T09:01:14;98692.66;;;7.47;100.00
8318;BME280;4196;48.926;8.964;2023-11-21T09:04:01;98704.69;;;7.58;100.00
8318;BME280;4196;48.926;8.964;2023-11-21T09:06:49;98709.00;;;7.63;100.00
8318;BME280;4196;48.926;8.964;2023-11-21T09:09:35;98711.63;;;7.71;100.00
8318;BME280;4196;48.926;8.964;2023-11-21T09:12:21;98698.69;;;7.69;100.00
8318;BME280;4196;48.926;8.964;2023-11-21T09:15:08;98708.19;;;7.75;100.00
8318;BME280;4196;48.926;8.964;2023-11-21T09:17:57;98706.47;;;7.79;100.00
8318;BME280;4196;48.926;8.964;2023-11-21T09:20:43;98715.97;;;7.89;100.00
8318;BME280;4196;48.926;8.964;2023-11-21T09:23:30;98723.72;;;8.09;100.00
8318;BME280;4196;48.926;8.964;2023-11-21T09:26:17;98722.03;;;8.20;100.00
8318;BME280;4196;48.926;8.964;2023-11-21T09:29:05;98712.59;;;8.17;100.00
8318;BME280;4196;48.926;8.964;2023-11-21T09:31:51;98736.66;;;8.27;100.00
8318;BME280;4196;48.926;8.964;2023-11-21T09:34:38;98739.31;;;8.47;100.00
8318;BME280;4196;48.926;8.964;2023-11-21T09:37:25;98741.88;;;8.59;100.00
8318;BME280;4196;48.926;8.964;2023-11-21T09:40:13;98745.31;;;8.78;100.00
8318;BME280;4196;48.926;8.964;2023-11-21T09:43:06;98738.41;;;8.89;100.00
8318;BME280;4196;48.926;8.964;2023-11-21T09:46:02;98747.00;;;9.17;100.00
8318;BME280;4196;48.926;8.964;2023-11-21T09:48:52;98747.84;;;9.23;100.00
8318;BME280;4196;48.926;8.964;2023-11-21T09:51:42;98749.56;;;9.22;100.00
8318;BME280;4196;48.926;8.964;2023-11-21T09:54:30;98745.25;;;9.26;100.00
8318;BME280;4196;48.926;8.964;2023-11-21T09:57:19;98744.34;;;9.40;100.00
8318;BME280;4196;48.926;8.964;2023-11-21T10:00:10;98748.69;;;9.29;100.00
8318;BME280;4196;48.926;8.964;2023-11-21T10:02:58;98740.97;;;9.11;100.00
8318;BME280;4196;48.926;8.964;2023-11-21T10:05:48;98746.13;;;9.05;100.00
8318;BME280;4196;48.926;8.964;2023-11-21T10:08:37;98746.13;;;9.14;100.00
8318;BME280;4196;48.926;8.964;2023-11-21T10:11:35;98749.53;;;9.24;100.00
8318;BME280;4196;48.926;8.964;2023-11-21T10:14:24;98747.84;;;9.15;100.00
8318;BME280;4196;48.926;8.964;2023-11-21T10:17:12;98737.50;;;9.21;100.00
8318;BME280;4196;48.926;8.964;2023-11-21T10:19:59;98752.03;;;9.60;100.00
8318;BME280;4196;48.926;8.964;2023-11-21T10:22:46;98754.56;;;9.71;100.00
8318;BME280;4196;48.926;8.964;2023-11-21T10:25:33;98753.63;;;9.86;100.00
8318;BME280;4196;48.926;8.964;2023-11-21T10:28:20;98746.69;;;9.94;100.00
8318;BME280;4196;48.926;8.964;2023-11-21T10:31:08;98756.22;;;9.90;100.00
8318;BME280;4196;48.926;8.964;2023-11-21T10:34:16;98754.38;;;10.11;100.00
8318;BME280;4196;48.926;8.964;2023-11-21T10:37:11;98729.44;;;10.02;100.00
8318;BME280;4196;48.926;8.964;2023-11-21T10:40:01;98745.75;;;10.13;100.00
8318;BME280;4196;48.926;8.964;2023-11-21T10:42:48;98753.53;;;10.09;100.00
8318;BME280;4196;48.926;8.964;2023-11-21T10:45:38;98745.03;;;9.79;100.00
8318;BME280;4196;48.926;8.964;2023-11-21T10:48:25;98752.78;;;9.82;100.00
8318;BME280;4196;48.926;8.964;2023-11-21T10:51:12;98755.38;;;9.85;100.00
8318;BME280;4196;48.926;8.964;2023-11-21T10:53:59;98751.13;;;9.72;100.00
8318;BME280;4196;48.926;8.964;2023-11-21T10:56:53;98756.31;;;9.64;100.00
8318;BME280;4196;48.926;8.964;2023-11-21T10:59:42;98764.97;;;9.56;100.00
8318;BME280;4196;48.926;8.964;2023-11-21T11:02:31;98758.03;;;9.61;100.00
8318;BME280;4196;48.926;8.964;2023-11-21T11:05:22;98759.72;;;9.71;100.00
8318;BME280;4196;48.926;8.964;2023-11-21T11:08:12;98741.66;;;9.63;100.00
8318;BME280;4196;48.926;8.964;2023-11-21T11:10:59;98749.38;;;9.74;100.00
8318;BME280;4196;48.926;8.964;2023-11-21T11:13:46;98765.72;;;9.79;100.00
8318;BME280;4196;48.926;8.964;2023-11-21T11:16:32;98768.34;;;9.76;100.00
8318;BME280;4196;48.926;8.964;2023-11-21T11:19:21;98756.31;;;9.69;100.00
8318;BME280;4196;48.926;8.964;2023-11-21T11:33:54;98749.13;;;10.23;100.00
8318;BME280;4196;48.926;8.964;2023-11-21T11:36:48;98767.09;;;10.49;100.00
8318;BME280;4196;48.926;8.964;2023-11-21T11:42:22;98770.50;;;10.56;100.00
8318;BME280;4196;48.926;8.964;2023-11-21T11:45:19;98775.66;;;10.62;100.00
8318;BME280;4196;48.926;8.964;2023-11-21T11:48:06;98773.06;;;10.62;100.00
8318;BME280;4196;48.926;8.964;2023-11-21T11:53:51;98710.31;;;10.26;100.00
8318;BME280;4196;48.926;8.964;2023-11-21T11:56:39;98767.91;;;10.56;100.00
8318;BME280;4196;48.926;8.964;2023-11-21T11:59:26;98767.91;;;10.57;100.00
8318;BME280;4196;48.926;8.964;2023-11-21T12:02:12;98767.91;;;10.59;100.00
8318;BME280;4196;48.926;8.964;2023-11-21T12:04:59;98711.13;;;10.34;100.00
8318;BME280;4196;48.926;8.964;2023-11-21T12:07:51;98765.22;;;10.70;100.00
8318;BME280;4196;48.926;8.964;2023-11-21T12:10:41;98769.50;;;10.74;100.00
8318;BME280;4196;48.926;8.964;2023-11-21T12:13:29;98770.38;;;10.71;100.00
8318;BME280;4196;48.926;8.964;2023-11-21T12:16:15;98774.75;;;10.66;100.00
8318;BME280;4196;48.926;8.964;2023-11-21T12:19:02;98779.81;;;10.78;100.00
8318;BME280;4196;48.926;8.964;2023-11-21T12:21:49;98785.13;;;10.63;100.00
8318;BME280;4196;48.926;8.964;2023-11-21T12:24:36;98778.19;;;10.67;100.00
8318;BME280;4196;48.926;8.964;2023-11-21T12:27:22;98763.78;;;10.32;100.00
8318;BME280;4196;48.926;8.964;2023-11-21T12:30:09;98784.50;;;10.27;100.00
8318;BME280;4196;48.926;8.964;2023-11-21T12:33:00;98788.81;;;10.25;100.00
8318;BME280;4196;48.926;8.964;2023-11-21T12:35:47;98778.56;;;10.01;100.00
8318;BME280;4196;48.926;8.964;2023-11-21T12:38:35;98799.22;;;10.11;100.00
8318;BME280;4196;48.926;8.964;2023-11-21T12:41:22;98799.25;;;10.04;100.00
8318;BME280;4196;48.926;8.964;2023-11-21T12:44:12;98794.94;;;10.03;100.00
8318;BME280;4196;48.926;8.964;2023-11-21T12:46:59;98809.59;;;10.04;100.00
8318;BME280;4196;48.926;8.964;2023-11-21T12:49:46;98803.69;;;9.76;100.00
8318;BME280;4196;48.926;8.964;2023-11-21T12:52:35;98808.09;;;9.32;100.00
8318;BME280;4196;48.926;8.964;2023-11-21T12:55:22;98813.28;;;9.35;100.00
8318;BME280;4196;48.926;8.964;2023-11-21T12:58:09;98818.41;;;9.44;100.00
8318;BME280;4196;48.926;8.964;2023-11-21T13:00:59;98817.53;;;9.55;100.00
8318;BME280;4196;48.926;8.964;2023-11-21T13:03:47;98815.78;;;9.61;100.00
8318;BME280;4196;48.926;8.964;2023-11-21T13:06:34;98824.38;;;9.76;100.00
8318;BME280;4196;48.926;8.964;2023-11-21T13:09:27;98818.31;;;9.80;100.00
8318;BME280;4196;48.926;8.964;2023-11-21T13:12:14;98826.94;;;9.74;100.00
8318;BME280;4196;48.926;8.964;2023-11-21T13:15:05;98831.25;;;9.74;100.00
8318;BME280;4196;48.926;8.964;2023-11-21T13:17:54;98839.00;;;9.87;100.00
8318;BME280;4196;48.926;8.964;2023-11-21T13:20:41;98824.34;;;9.77;100.00
8318;BME280;4196;48.926;8.964;2023-11-21T13:23:29;98835.53;;;9.79;100.00
8318;BME280;4196;48.926;8.964;2023-11-21T13:26:20;98818.31;;;9.81;100.00
8318;BME280;4196;48.926;8.964;2023-11-21T13:29:08;98835.47;;;10.01;100.00
8318;BME280;4196;48.926;8.964;2023-11-21T13:31:55;98837.25;;;9.89;100.00
8318;BME280;4196;48.926;8.964;2023-11-21T13:34:42;98842.44;;;9.83;100.00
8318;BME280;4196;48.926;8.964;2023-11-21T13:37:31;98839.78;;;9.97;100.00
8318;BME280;4196;48.926;8.964;2023-11-21T13:40:22;98832.94;;;9.91;100.00
8318;BME280;4196;48.926;8.964;2023-11-21T13:43:13;98842.41;;;9.96;100.00
8318;BME280;4196;48.926;8.964;2023-11-21T13:46:03;98847.56;;;9.99;100.00
8318;BME280;4196;48.926;8.964;2023-11-21T13:48:59;98852.81;;;9.74;100.00
8318;BME280;4196;48.926;8.964;2023-11-21T13:51:46;98856.22;;;9.82;100.00
8318;BME280;4196;48.926;8.964;2023-11-21T13:54:37;98847.63;;;9.74;100.00
8318;BME280;4196;48.926;8.964;2023-11-21T13:57:24;98867.50;;;9.51;100.00
8318;BME280;4196;48.926;8.964;2023-11-21T14:00:11;98864.06;;;9.24;100.00
8318;BME280;4196;48.926;8.964;2023-11-21T14:03:18;98873.53;;;8.98;100.00
8318;BME280;4196;48.926;8.964;2023-11-21T14:06:08;98872.66;;;8.74;100.00
8318;BME280;4196;48.926;8.964;2023-11-21T14:09:01;98869.16;;;8.49;100.00
8318;BME280;4196;48.926;8.964;2023-11-21T14:11:52;98884.63;;;8.40;100.00
8318;BME280;4196;48.926;8.964;2023-11-21T14:14:40;98893.22;;;8.39;100.00
8318;BME280;4196;48.926;8.964;2023-11-21T14:17:26;98894.00;;;8.30;100.00
8318;BME280;4196;48.926;8.964;2023-11-21T14:20:13;98896.56;;;8.18;100.00
8318;BME280;4196;48.926;8.964;2023-11-21T14:23:04;98894.78;;;8.08;100.00
8318;BME280;4196;48.926;8.964;2023-11-21T14:25:52;98899.09;;;8.07;100.00
8318;BME280;4196;48.926;8.964;2023-11-21T14:28:39;98901.63;;;8.06;100.00
8318;BME280;4196;48.926;8.964;2023-11-21T14:31:26;98907.63;;;8.02;100.00
8318;BME280;4196;48.926;8.964;2023-11-21T14:34:14;98888.66;;;7.84;100.00
8318;BME280;4196;48.926;8.964;2023-11-21T14:37:06;98912.75;;;7.89;100.00
8318;BME280;4196;48.926;8.964;2023-11-21T14:39:53;98895.50;;;7.82;100.00
8318;BME280;4196;48.926;8.964;2023-11-21T14:42:41;98899.81;;;7.82;100.00
8318;BME280;4196;48.926;8.964;2023-11-21T14:45:28;98921.31;;;7.91;100.00
8318;BME280;4196;48.926;8.964;2023-11-21T14:48:15;98928.25;;;7.98;100.00
8318;BME280;4196;48.926;8.964;2023-11-21T14:51:18;98927.41;;;8.01;100.00
8318;BME280;4196;48.926;8.964;2023-11-21T14:54:17;98934.25;;;7.96;100.00
8318;BME280;4196;48.926;8.964;2023-11-21T14:57:14;98933.38;;;7.92;100.00
8318;BME280;4196;48.926;8.964;2023-11-21T15:00:05;98940.22;;;7.90;100.00
8318;BME280;4196;48.926;8.964;2023-11-21T15:02:55;98944.56;;;7.94;100.00
8318;BME280;4196;48.926;8.964;2023-11-21T15:05:42;98944.59;;;7.99;100.00
8318;BME280;4196;48.926;8.964;2023-11-21T15:08:29;98945.44;;;7.96;100.00
8318;BME280;4196;48.926;8.964;2023-11-21T15:11:19;98949.69;;;7.91;100.00
8318;BME280;4196;48.926;8.964;2023-11-21T15:14:08;98952.31;;;7.97;100.00
8318;BME280;4196;48.926;8.964;2023-11-21T15:16:56;98953.13;;;7.90;100.00
8318;BME280;4196;48.926;8.964;2023-11-21T15:19:46;98951.31;;;7.75;100.00
8318;BME280;4196;48.926;8.964;2023-11-21T15:22:33;98959.09;;;7.83;100.00
8318;BME280;4196;48.926;8.964;2023-11-21T15:25:19;98956.41;;;7.69;100.00
8318;BME280;4196;48.926;8.964;2023-11-21T15:28:06;98965.88;;;7.72;100.00